Time;durP1;ratioP1;P1;durP2;ratioP2;P2;SDS_P1;SDS_P2;PMS_P1;PMS_P2;Temp;Humidity;BMP_temperature;BMP_pressure;BME280_temperature;BME280_humidity;BME280_pressure;Samples;Min_cycle;Max_cycle;Signal;HPM_P1;HPM_P2
2023/04/19 00:00:09;;;;;;;6.10;3.10;;;;;;;14.81;47.76;99113.28;4359520;32;34972;-84
2023/04/19 00:02:36;;;;;;;5.50;3.17;;;;;;;14.67;48.63;99103.78;4358710;32;33587;-83
2023/04/19 00:05:05;;;;;;;7.07;3.25;;;;;;;14.74;48.97;99105.50;4357482;32;33509;-84
2023/04/19 00:07:32;;;;;;;7.93;3.22;;;;;;;14.81;48.63;99104.56;4358948;32;33974;-85
2023/04/19 00:10:00;;;;;;;6.47;3.08;;;;;;;14.79;48.77;99090.66;4358476;32;34110;-84
2023/04/19 00:12:27;;;;;;;6.07;3.30;;;;;;;14.76;48.86;99091.53;4359194;32;33117;-85
2023/04/19 00:14:55;;;;;;;8.15;3.22;;;;;;;14.56;48.89;99091.66;4357942;32;34840;-85
2023/04/19 00:17:23;;;;;;;6.70;2.80;;;;;;;14.75;48.10;99084.59;4360662;32;33846;-85
2023/04/19 00:19:51;;;;;;;10.23;3.92;;;;;;;14.65;47.94;99087.25;4346781;32;34329;-85
2023/04/19 00:22:18;;;;;;;7.55;3.60;;;;;;;14.52;48.30;99091.69;4360750;32;33639;-86
2023/04/19 00:24:46;;;;;;;9.18;3.28;;;;;;;14.29;48.48;99094.34;4346779;32;33816;-85
2023/04/19 00:27:13;;;;;;;6.20;3.08;;;;;;;14.44;48.29;99083.84;4347078;32;33741;-86
2023/04/19 00:29:41;;;;;;;7.93;3.40;;;;;;;14.51;48.43;99089.94;4345549;32;33943;-84
2023/04/19 00:32:09;;;;;;;6.95;3.35;;;;;;;14.52;48.71;99084.72;4346439;32;34000;-84
2023/04/19 00:34:37;;;;;;;8.20;3.30;;;;;;;14.72;49.56;99082.00;4360194;32;33812;-84
2023/04/19 00:37:04;;;;;;;8.02;3.33;;;;;;;14.76;49.43;99080.25;4359870;32;34032;-86
2023/04/19 00:39:32;;;;;;;6.75;3.28;;;;;;;14.70;48.52;99082.88;4359886;32;33787;-85
2023/04/19 00:42:00;;;;;;;8.25;3.10;;;;;;;14.41;49.11;99083.88;4355535;32;34142;-85
2023/04/19 00:44:27;;;;;;;7.82;3.58;;;;;;;14.58;48.98;99074.25;4358402;32;33949;-86
2023/04/19 00:46:56;;;;;;;7.78;3.58;;;;;;;14.38;47.92;99076.03;4345890;32;34108;-86
2023/04/19 00:49:23;;;;;;;6.93;3.15;;;;;;;14.43;48.01;99076.00;4358932;32;33650;-87
2023/04/19 00:51:51;;;;;;;5.28;3.00;;;;;;;14.29;46.23;99070.87;4346246;32;32109;-85
2023/04/19 00:54:19;;;;;;;6.47;3.10;;;;;;;14.28;46.47;99071.72;4358981;32;34949;-85
2023/04/19 00:56:48;;;;;;;8.50;3.78;;;;;;;13.71;48.01;99065.78;4346461;32;34423;-87
2023/04/19 00:59:17;;;;;;;7.55;2.80;;;;;;;13.76;46.50;99067.53;4346494;32;33918;-86
2023/04/19 01:01:45;;;;;;;6.68;3.25;;;;;;;13.82;46.93;99069.25;4346218;32;34175;-87
2023/04/19 01:04:12;;;;;;;7.00;3.42;;;;;;;13.89;46.63;99063.16;4359784;32;33680;-85
2023/04/19 01:06:41;;;;;;;8.20;3.35;;;;;;;14.22;48.55;99062.19;4346857;32;33792;-86
2023/04/19 01:09:10;;;;;;;8.75;3.83;;;;;;;14.27;48.98;99067.41;4351710;32;33645;-86
2023/04/19 01:11:40;;;;;;;5.87;3.25;;;;;;;14.27;48.75;99057.81;4359965;32;34559;-84
2023/04/19 01:14:10;;;;;;;8.30;3.30;;;;;;;14.03;48.81;99056.19;4357525;32;34163;-83
2023/04/19 01:16:38;;;;;;;6.35;3.35;;;;;;;13.86;49.15;99053.63;4358288;32;33832;-83
2023/04/19 01:19:05;;;;;;;7.43;3.58;;;;;;;13.88;49.16;99056.22;4356258;32;35289;-83
2023/04/19 01:21:37;;;;;;;11.63;3.60;;;;;;;13.66;49.78;99054.53;4359084;32;33586;-83
2023/04/19 01:24:05;;;;;;;13.35;3.62;;;;;;;13.66;49.40;99054.53;4357101;32;34827;-82
2023/04/19 01:26:33;;;;;;;5.50;3.12;;;;;;;13.66;49.20;99046.72;4357081;32;34308;-82
2023/04/19 01:29:02;;;;;;;6.57;3.83;;;;;;;13.39;47.51;99038.91;4357424;32;34091;-83
2023/04/19 01:31:29;;;;;;;8.63;3.95;;;;;;;13.55;47.78;99044.12;4358070;32;33739;-82
2023/04/19 01:33:57;;;;;;;6.53;3.50;;;;;;;13.71;47.60;99042.34;4358951;32;34077;-82
2023/04/19 01:36:24;;;;;;;6.65;3.70;;;;;;;13.53;48.22;99043.28;4345350;32;33405;-83
2023/04/19 01:38:52;;;;;;;6.45;3.30;;;;;;;13.64;50.00;99033.69;4357381;32;34063;-83
2023/04/19 01:41:21;;;;;;;6.82;3.50;;;;;;;13.55;48.90;99034.56;4357686;32;34302;-83
2023/04/19 01:43:49;;;;;;;6.25;3.58;;;;;;;13.56;50.65;99028.50;4359008;32;33737;-83
2023/04/19 01:46:17;;;;;;;7.53;4.05;;;;;;;13.35;50.30;99034.59;4344202;32;34318;-83
2023/04/19 01:48:45;;;;;;;8.35;3.30;;;;;;;13.23;49.23;99032.00;4358544;32;33761;-84
2023/04/19 01:51:12;;;;;;;6.97;3.50;;;;;;;13.50;50.50;99022.44;4357889;32;32614;-83
2023/04/19 01:53:39;;;;;;;5.68;3.28;;;;;;;13.63;50.35;99029.34;4358645;32;33523;-84
2023/04/19 01:56:07;;;;;;;11.85;3.90;;;;;;;13.56;50.89;99028.50;4344315;32;35146;-82
2023/04/19 01:58:36;;;;;;;9.80;4.30;;;;;;;13.43;50.96;99025.91;4358147;32;33996;-84
2023/04/19 02:01:03;;;;;;;6.97;4.05;;;;;;;13.07;50.44;99030.22;4356767;32;33333;-83
2023/04/19 02:03:31;;;;;;;8.63;4.00;;;;;;;13.32;50.49;99024.16;4358548;32;34677;-84
2023/04/19 02:05:59;;;;;;;6.82;3.75;;;;;;;13.11;50.68;99022.41;4358270;32;33749;-84
2023/04/19 02:08:26;;;;;;;6.85;3.95;;;;;;;13.00;50.52;99029.34;4354611;32;33146;-85
2023/04/19 02:10:54;;;;;;;7.40;4.20;;;;;;;13.09;51.53;99024.13;4329156;33;33552;-85
2023/04/19 02:13:21;;;;;;;7.28;4.60;;;;;;;12.83;51.77;99024.13;4350617;32;34317;-84
2023/04/19 02:15:49;;;;;;;7.57;4.12;;;;;;;13.03;51.33;99026.75;4356748;32;34248;-83
2023/04/19 02:18:17;;;;;;;9.10;4.78;;;;;;;13.18;51.99;99015.44;4355826;32;33811;-85
2023/04/19 02:20:44;;;;;;;9.88;5.43;;;;;;;13.17;51.96;99013.72;4357265;32;33453;-83
2023/04/19 02:23:12;;;;;;;8.95;5.53;;;;;;;12.99;51.17;99018.94;4358053;32;34057;-84
2023/04/19 02:25:39;;;;;;;7.85;5.07;;;;;;;12.66;52.88;99021.50;4359321;32;34215;-83
2023/04/19 02:28:07;;;;;;;11.75;5.87;;;;;;;12.90;52.66;99019.78;4356327;32;33926;-83
2023/04/19 02:30:36;;;;;;;9.05;6.70;;;;;;;12.54;53.42;99017.97;4331534;32;33078;-83
2023/04/19 02:33:03;;;;;;;10.65;5.68;;;;;;;12.89;52.46;99008.53;4357904;32;33787;-84
2023/04/19 02:35:33;;;;;;;10.25;6.05;;;;;;;12.90;53.32;99004.19;4359110;32;34138;-84
2023/04/19 02:38:02;;;;;;;12.23;6.47;;;;;;;12.38;54.07;99010.16;4355570;32;33644;-84
2023/04/19 02:40:30;;;;;;;10.13;6.37;;;;;;;12.73;54.08;98998.97;4343173;32;33800;-83
2023/04/19 02:42:58;;;;;;;10.77;6.43;;;;;;;12.72;53.70;98998.97;4344856;32;32574;-84
2023/04/19 02:45:25;;;;;;;9.65;5.50;;;;;;;12.38;53.75;98996.28;4358400;32;33794;-84
2023/04/19 02:47:54;;;;;;;9.00;5.28;;;;;;;12.23;53.80;98988.44;4356470;32;33646;-82
2023/04/19 02:50:22;;;;;;;11.68;4.85;;;;;;;12.73;53.28;98988.56;4355093;32;33962;-86
2023/04/19 02:52:50;;;;;;;8.07;4.85;;;;;;;12.94;53.49;98994.66;4358265;32;34451;-85
2023/04/19 02:55:18;;;;;;;11.77;5.57;;;;;;;13.01;52.77;98984.25;4359896;32;34891;-84
2023/04/19 02:57:46;;;;;;;9.55;5.62;;;;;;;13.25;52.97;98982.53;4358380;32;32389;-85
2023/04/19 03:00:14;;;;;;;9.65;5.07;;;;;;;12.79;51.85;98982.50;4346006;32;34347;-83
2023/04/19 03:02:43;;;;;;;9.65;5.22;;;;;;;12.75;52.97;98972.94;4360017;32;33755;-84
2023/04/19 03:05:11;;;;;;;9.77;5.43;;;;;;;12.73;51.67;98972.06;4359221;32;34086;-85
2023/04/19 03:07:38;;;;;;;9.55;5.03;;;;;;;12.99;53.02;98970.34;4359322;32;33896;-85
2023/04/19 03:10:07;;;;;;;8.18;5.40;;;;;;;13.03;53.45;98969.50;4359235;32;34016;-84
2023/04/19 03:12:34;;;;;;;10.48;5.57;;;;;;;13.11;53.28;98962.56;4359965;32;34765;-84
2023/04/19 03:15:02;;;;;;;9.57;5.25;;;;;;;12.46;54.26;98965.09;4359777;32;34683;-83
2023/04/19 03:17:30;;;;;;;10.00;5.55;;;;;;;12.67;52.70;98959.94;4360006;32;34203;-84
2023/04/19 03:19:57;;;;;;;9.18;5.82;;;;;;;12.39;52.02;98961.66;4332282;32;33369;-85
2023/04/19 03:22:25;;;;;;;9.70;5.60;;;;;;;12.37;53.84;98963.34;4358760;32;34590;-84
2023/04/19 03:24:53;;;;;;;9.82;4.70;;;;;;;12.37;52.66;98963.34;4344612;32;33608;-84
2023/04/19 03:27:22;;;;;;;9.73;5.55;;;;;;;12.64;52.66;98954.72;4347608;32;33744;-85
2023/04/19 03:29:50;;;;;;;10.38;4.87;;;;;;;12.85;52.77;98954.75;4360793;32;32774;-84
2023/04/19 03:32:17;;;;;;;10.30;5.47;;;;;;;12.50;53.46;98953.84;4360459;32;33364;-84
2023/04/19 03:34:45;;;;;;;7.80;5.37;;;;;;;12.48;54.00;98953.84;4355325;32;35042;-84
2023/04/19 03:37:15;;;;;;;10.13;5.85;;;;;;;12.34;54.49;98955.53;4354657;32;35263;-85
2023/04/19 03:39:42;;;;;;;8.63;5.72;;;;;;;12.43;54.04;98947.78;4346356;32;33857;-85
2023/04/19 03:42:12;;;;;;;7.07;4.80;;;;;;;12.61;53.54;98955.63;4360524;32;33928;-84
2023/04/19 03:44:41;;;;;;;8.70;5.70;;;;;;;12.58;53.75;98955.59;4360953;32;33833;-84
2023/04/19 03:47:09;;;;;;;8.98;5.68;;;;;;;12.37;54.09;98956.41;4345976;32;34175;-86
2023/04/19 03:49:37;;;;;;;10.43;5.80;;;;;;;12.45;53.74;98955.56;4346102;32;33307;-85
2023/04/19 03:52:05;;;;;;;10.35;5.60;;;;;;;12.20;54.76;98959.84;4360345;32;33485;-85
2023/04/19 03:54:33;;;;;;;9.57;5.25;;;;;;;12.33;54.49;98952.09;4346468;32;34411;-84
2023/04/19 03:57:01;;;;;;;8.90;5.40;;;;;;;12.21;54.53;98953.78;4346217;32;34381;-86
2023/04/19 03:59:28;;;;;;;12.20;6.93;;;;;;;12.39;54.11;98951.25;4360833;32;34159;-85
2023/04/19 04:01:57;;;;;;;11.70;5.53;;;;;;;12.26;54.76;98962.47;4359932;32;33982;-85
2023/04/19 04:04:25;;;;;;;9.45;6.50;;;;;;;12.33;54.64;98954.69;4360176;32;34441;-84
2023/04/19 04:06:54;;;;;;;9.10;5.87;;;;;;;12.58;54.11;98952.13;4359763;32;34723;-85
2023/04/19 04:09:22;;;;;;;8.55;5.25;;;;;;;12.46;54.52;98954.69;4360320;32;34485;-84
2023/04/19 04:11:50;;;;;;;9.48;6.18;;;;;;;12.36;54.71;98954.69;4351294;32;34639;-85
2023/04/19 04:14:17;;;;;;;10.48;5.65;;;;;;;12.41;54.77;98952.09;4358193;32;34147;-85
2023/04/19 04:16:45;;;;;;;8.57;5.53;;;;;;;12.26;55.14;98949.47;4358951;32;34614;-84
2023/04/19 04:19:14;;;;;;;10.65;5.30;;;;;;;12.33;54.83;98951.22;4360464;32;33519;-84
2023/04/19 04:21:41;;;;;;;8.57;5.35;;;;;;;12.20;55.32;98946.84;4345911;32;33662;-85
2023/04/19 04:24:11;;;;;;;12.32;5.90;;;;;;;12.20;55.21;98952.03;4360629;32;34123;-85
2023/04/19 04:26:41;;;;;;;10.60;5.70;;;;;;;12.33;54.79;98939.09;4360525;32;33958;-84
2023/04/19 04:29:09;;;;;;;10.13;6.10;;;;;;;12.12;55.69;98950.31;4360945;32;32180;-84
2023/04/19 04:31:38;;;;;;;10.93;5.45;;;;;;;12.09;55.81;98945.09;4358686;32;34727;-83
2023/04/19 04:34:08;;;;;;;9.85;5.47;;;;;;;12.34;55.53;98942.53;4359009;32;33649;-83
2023/04/19 04:36:37;;;;;;;9.80;6.35;;;;;;;12.28;55.82;98947.75;4347510;32;33649;-85
2023/04/19 04:39:09;;;;;;;9.30;5.05;;;;;;;12.56;55.23;98941.72;4360179;32;33195;-84
2023/04/19 04:41:40;;;;;;;9.52;5.80;;;;;;;12.80;53.29;98942.59;4347262;32;34662;-83
2023/04/19 04:44:07;;;;;;;10.20;5.47;;;;;;;12.84;54.41;98936.53;4357555;32;34634;-84
2023/04/19 04:46:49;;;;;;;9.38;6.05;;;;;;;13.32;53.48;98945.19;4359461;32;32076;-83
2023/04/19 04:49:17;;;;;;;11.02;6.32;;;;;;;12.91;51.60;98938.25;4357604;32;34131;-84
2023/04/19 04:51:46;;;;;;;10.20;6.62;;;;;;;12.61;51.34;98940.00;4357501;32;34599;-86
2023/04/19 04:54:14;;;;;;;11.43;6.10;;;;;;;12.75;51.27;98936.53;4360112;32;33685;-84
2023/04/19 04:56:42;;;;;;;11.10;7.35;;;;;;;13.11;51.52;98938.28;4332624;33;33484;-84
2023/04/19 04:59:11;;;;;;;11.65;7.90;;;;;;;12.93;51.51;98935.69;4341778;32;32809;-85
2023/04/19 05:01:39;;;;;;;13.65;8.13;;;;;;;12.97;52.37;98935.66;4354500;32;34770;-85
2023/04/19 05:04:06;;;;;;;12.00;7.65;;;;;;;13.39;51.12;98933.91;4331009;32;32753;-86
2023/04/19 05:06:34;;;;;;;15.77;7.87;;;;;;;12.75;52.64;98929.59;4346794;32;34645;-86
2023/04/19 05:09:02;;;;;;;12.52;7.30;;;;;;;13.03;51.64;98935.69;4343690;32;34100;-87
2023/04/19 05:11:30;;;;;;;12.20;8.13;;;;;;;12.61;52.46;98933.91;4358077;32;33455;-85
2023/04/19 05:13:58;;;;;;;11.32;7.62;;;;;;;12.91;51.92;98930.47;4346934;32;34972;-85
2023/04/19 05:16:26;;;;;;;13.55;7.57;;;;;;;12.71;52.52;98934.81;4346144;32;33761;-85
2023/04/19 05:18:54;;;;;;;13.88;7.35;;;;;;;13.18;51.35;98937.38;4359797;32;34542;-85
2023/04/19 05:21:25;;;;;;;11.82;6.78;;;;;;;13.66;49.54;98935.56;4360195;32;33812;-86
2023/04/19 05:23:53;;;;;;;10.35;6.32;;;;;;;13.58;49.60;98932.97;4356435;32;34590;-85
2023/04/19 05:26:21;;;;;;;10.52;6.30;;;;;;;13.56;49.97;98928.63;4359728;32;33836;-84
2023/04/19 05:28:49;;;;;;;12.95;6.87;;;;;;;13.85;49.91;98931.16;4346894;32;34419;-85
2023/04/19 05:31:19;;;;;;;10.07;6.65;;;;;;;13.12;51.06;98933.06;4360131;32;33675;-85
2023/04/19 06:22:45;;;;;;;13.82;8.43;;;;;;;14.81;48.71;98917.56;4291860;31;20097;-85
2023/04/19 06:25:13;;;;;;;12.07;7.28;;;;;;;14.80;48.35;98910.56;4332738;33;35650;-85
2023/04/19 06:27:41;;;;;;;12.55;7.35;;;;;;;14.76;48.14;98908.00;4333445;33;35679;-85
2023/04/19 06:30:08;;;;;;;12.57;7.78;;;;;;;15.09;47.97;98910.31;4334511;33;34953;-85
2023/04/19 06:32:36;;;;;;;11.93;7.22;;;;;;;15.37;46.66;98896.97;4322235;33;34836;-85
2023/04/19 06:35:05;;;;;;;12.63;6.50;;;;;;;15.65;44.98;98905.41;4334806;33;34847;-85
2023/04/19 06:37:33;;;;;;;10.93;6.78;;;;;;;15.55;44.64;98904.63;4334682;33;35182;-85
2023/04/19 06:40:01;;;;;;;9.57;5.93;;;;;;;15.12;45.89;98899.00;4322136;33;34782;-85
2023/04/19 06:42:28;;;;;;;11.50;5.87;;;;;;;15.51;43.92;98896.84;4334658;33;35029;-85
2023/04/19 06:44:58;;;;;;;11.80;5.80;;;;;;;14.93;46.04;98895.69;4334451;33;34578;-85
2023/04/19 06:47:26;;;;;;;9.77;5.85;;;;;;;15.05;45.61;98892.09;4334371;33;35288;-85
2023/04/19 06:49:53;;;;;;;11.07;5.45;;;;;;;15.08;45.14;98895.56;4310167;33;34470;-85
2023/04/19 06:52:21;;;;;;;9.80;4.95;;;;;;;15.47;43.71;98898.63;4334431;33;35343;-85
2023/04/19 06:54:49;;;;;;;10.13;4.90;;;;;;;15.84;42.66;98892.12;4322096;33;35387;-85
2023/04/19 06:57:17;;;;;;;9.95;4.72;;;;;;;15.65;43.29;98892.34;4329367;33;170851;-85
2023/04/19 06:59:45;;;;;;;8.48;4.55;;;;;;;15.52;43.53;98894.19;4322029;33;34906;-85
2023/04/19 07:02:12;;;;;;;8.68;4.50;;;;;;;15.66;42.06;98887.97;4334387;33;35322;-85
2023/04/19 07:04:40;;;;;;;10.02;5.35;;;;;;;16.01;42.49;98890.13;4334485;33;35466;-85
2023/04/19 07:07:07;;;;;;;8.65;4.57;;;;;;;16.32;41.87;98892.31;4334392;33;35333;-85
2023/04/19 07:09:35;;;;;;;8.75;4.93;;;;;;;16.33;41.36;98886.19;4334325;33;34019;-85
2023/04/19 07:12:02;;;;;;;7.80;4.68;;;;;;;16.36;40.04;98884.38;4322131;33;34906;-85
2023/04/19 07:14:30;;;;;;;8.38;5.07;;;;;;;16.05;42.25;98882.22;4309733;33;34463;-85
2023/04/19 07:16:57;;;;;;;10.18;5.65;;;;;;;15.98;41.89;98880.56;4321906;33;35162;-86
2023/04/19 07:19:25;;;;;;;14.07;6.45;;;;;;;16.43;41.92;98882.56;4334379;33;35043;-85
2023/04/19 07:21:52;;;;;;;9.93;6.22;;;;;;;16.39;42.99;98883.50;4334301;33;35231;-85
2023/04/19 07:24:20;;;;;;;11.27;6.32;;;;;;;16.26;43.18;98885.44;4321951;33;35212;-85
2023/04/19 07:26:48;;;;;;;10.10;6.60;;;;;;;15.94;44.15;98891.09;4334296;33;35298;-84
2023/04/19 07:29:15;;;;;;;12.07;8.02;;;;;;;16.23;43.89;98891.56;4334114;33;34401;-84
2023/04/19 07:31:43;;;;;;;10.85;7.37;;;;;;;15.89;44.89;98885.94;4321927;33;35534;-86
2023/04/19 07:34:10;;;;;;;11.07;7.03;;;;;;;16.51;43.44;98886.75;4321251;33;33890;-86
2023/04/19 07:36:37;;;;;;;10.20;6.35;;;;;;;16.04;44.92;98884.88;4320486;33;35276;-86
2023/04/19 07:39:05;;;;;;;12.30;7.12;;;;;;;16.38;44.42;98885.25;4319213;33;34575;-86
2023/04/19 07:41:33;;;;;;;12.43;7.07;;;;;;;16.83;44.75;98897.66;4319521;33;34879;-86
2023/04/19 07:44:02;;;;;;;14.48;7.68;;;;;;;17.00;43.57;98891.22;4331682;33;35221;-86
2023/04/19 07:46:30;;;;;;;13.15;8.65;;;;;;;16.98;44.06;98890.41;4334040;33;35124;-86
2023/04/19 07:48:57;;;;;;;14.40;8.60;;;;;;;16.48;47.30;98886.84;4327654;33;34859;-86
2023/04/19 07:51:25;;;;;;;13.62;7.90;;;;;;;16.67;47.64;98891.78;4334114;33;35294;-86
2023/04/19 07:53:53;;;;;;;14.85;7.78;;;;;;;16.99;45.26;98894.75;4322660;33;34931;-86
2023/04/19 07:56:21;;;;;;;13.43;7.78;;;;;;;16.84;44.29;98896.75;4319493;33;35176;-87
2023/04/19 07:58:48;;;;;;;12.25;7.37;;;;;;;16.92;44.83;98887.87;4306964;33;34760;-87
2023/04/19 08:01:33;;;;;;;12.00;8.15;;;;;;;17.24;43.72;98894.31;4319337;33;33201;-86
2023/04/19 08:04:01;;;;;;;13.23;7.75;;;;;;;17.10;44.07;98889.31;4321752;33;35359;-86
2023/04/19 08:06:29;;;;;;;15.35;7.85;;;;;;;17.14;43.55;98890.13;4309790;33;34660;-86
2023/04/19 08:08:57;;;;;;;14.65;8.35;;;;;;;17.33;42.50;98886.28;4333174;33;35027;-86
2023/04/19 08:11:24;;;;;;;15.40;7.85;;;;;;;17.63;42.92;98889.19;4306820;33;35271;-86
2023/04/19 08:13:52;;;;;;;14.20;6.72;;;;;;;17.65;40.77;98896.13;4307172;33;35108;-86
2023/04/19 08:16:38;;;;;;;12.07;6.55;;;;;;;17.79;40.33;98882.75;4319407;33;35413;-86
2023/04/19 08:19:08;;;;;;;9.57;5.53;;;;;;;17.76;41.04;98874.94;4319340;33;34829;-86
2023/04/19 08:21:37;;;;;;;11.10;5.62;;;;;;;17.29;39.08;98874.13;4319325;33;35020;-86
2023/04/19 08:24:08;;;;;;;10.23;6.62;;;;;;;17.10;38.65;98883.22;4328492;33;35415;-86
2023/04/19 08:26:37;;;;;;;9.45;6.15;;;;;;;17.40;38.18;98873.91;4321446;33;35295;-87
2023/04/19 08:29:05;;;;;;;9.23;6.25;;;;;;;17.40;38.75;98884.41;4324276;33;34916;-87
2023/04/19 08:31:32;;;;;;;9.80;5.70;;;;;;;17.59;39.75;98883.13;4310341;33;35338;-86
2023/04/19 08:34:01;;;;;;;12.10;6.82;;;;;;;18.15;38.81;98869.75;4306798;33;34925;-87
2023/04/19 08:36:29;;;;;;;11.65;7.45;;;;;;;17.80;39.43;98873.13;4319283;33;35215;-86
2023/04/19 08:39:11;;;;;;;12.98;7.05;;;;;;;17.41;39.64;98880.87;4306795;33;33328;-87
2023/04/19 08:41:58;;;;;;;12.00;5.57;;;;;;;17.70;39.82;98872.44;4308525;33;34910;-87
2023/04/19 08:44:38;;;;;;;13.25;7.62;;;;;;;17.70;39.18;98861.97;4326994;33;35390;-87
2023/04/19 08:47:27;;;;;;;11.68;7.47;;;;;;;18.10;39.15;98861.09;4309095;33;35882;-87
2023/04/19 08:50:02;;;;;;;10.67;6.27;;;;;;;18.10;41.23;98863.72;4318106;33;34728;-86
2023/04/19 08:52:34;;;;;;;11.82;6.95;;;;;;;17.95;39.31;98863.16;4319152;33;34889;-86
2023/04/19 08:55:11;;;;;;;12.60;6.70;;;;;;;17.83;40.67;98862.59;4319162;33;35112;-85
2023/04/19 08:57:39;;;;;;;11.75;6.80;;;;;;;18.20;40.39;98849.50;4285506;33;35233;-87
2023/04/19 09:00:09;;;;;;;12.63;7.30;;;;;;;17.68;41.77;98856.72;4300014;33;33744;-88
2023/04/19 09:03:03;;;;;;;15.90;8.15;;;;;;;17.57;42.63;98863.09;4313690;33;33918;-86
2023/04/19 09:05:31;;;;;;;14.52;9.52;;;;;;;17.71;42.86;98869.78;4302087;33;33597;-87
2023/04/19 09:08:22;;;;;;;16.92;10.48;;;;;;;17.62;43.65;98863.88;4316372;33;34028;-87
2023/04/19 09:10:53;;;;;;;13.95;10.23;;;;;;;17.44;44.69;98865.97;4303200;33;33353;-86
2023/04/19 09:13:21;;;;;;;21.15;11.70;;;;;;;17.71;45.08;98864.53;4291949;33;33472;-89
2023/04/19 09:15:50;;;;;;;16.40;9.57;;;;;;;17.58;44.18;98859.56;4288673;33;33927;-87
2023/04/19 09:18:18;;;;;;;15.45;9.55;;;;;;;17.88;43.51;98855.47;4301758;33;34016;-86
2023/04/19 09:20:46;;;;;;;16.85;9.88;;;;;;;17.86;42.77;98852.88;4301801;33;34357;-89
2023/04/19 09:23:15;;;;;;;15.43;9.15;;;;;;;17.64;43.95;98852.44;4296126;33;33732;-88
2023/04/19 09:26:00;;;;;;;14.45;9.60;;;;;;;17.47;44.12;98858.03;4301623;33;34627;-89
2023/04/19 09:28:30;;;;;;;14.80;8.75;;;;;;;17.78;43.61;98849.56;4289247;33;34287;-86
2023/04/19 09:31:12;;;;;;;13.80;8.85;;;;;;;17.60;44.31;98844.69;4288443;33;32773;-91
2023/04/19 09:34:18;;;;;;;14.52;9.00;;;;;;;18.16;43.18;98845.25;4303586;33;34195;-93
2023/04/19 09:36:45;;;;;;;19.97;9.63;;;;;;;18.09;42.86;98827.91;4301644;33;33914;-92
2023/04/19 09:39:13;;;;;;;14.40;10.35;;;;;;;18.50;43.61;98840.03;4276804;33;33608;-86
2023/04/19 09:41:52;;;;;;;12.90;8.63;;;;;;;18.39;43.62;98836.81;4301744;33;33613;-90
2023/04/19 09:44:20;;;;;;;15.15;10.07;;;;;;;18.36;41.38;98831.62;4302082;33;33667;-94
2023/04/19 09:46:51;;;;;;;15.38;10.18;;;;;;;18.36;43.41;98836.88;4301496;33;33952;-91
2023/04/19 09:49:26;;;;;;;19.20;10.02;;;;;;;18.02;42.96;98832.44;4301599;33;34150;-88
2023/04/19 09:52:13;;;;;;;20.88;10.43;;;;;;;18.15;43.20;98838.28;4288585;33;33005;-93
2023/04/19 09:54:41;;;;;;;14.15;10.25;;;;;;;18.22;43.08;98840.72;4301406;33;33750;-85
2023/04/19 09:57:09;;;;;;;13.65;9.68;;;;;;;18.00;43.38;98834.25;4301871;33;34221;-88
2023/04/19 09:59:36;;;;;;;16.87;9.93;;;;;;;17.80;43.49;98836.41;4288588;33;33997;-84
2023/04/19 10:02:05;;;;;;;14.68;10.20;;;;;;;18.13;42.99;98834.81;4300971;33;33342;-88
2023/04/19 10:04:34;;;;;;;16.12;10.10;;;;;;;18.28;43.10;98833.59;4312025;33;34839;-94
2023/04/19 10:07:21;;;;;;;16.77;11.57;;;;;;;18.42;43.91;98826.25;4301342;33;33954;-92
2023/04/19 10:09:58;;;;;;;17.02;11.07;;;;;;;18.18;43.63;98827.69;4301616;33;33878;-91
2023/04/19 10:12:48;;;;;;;17.55;12.27;;;;;;;18.46;43.12;98828.75;4301777;33;33415;-86
2023/04/19 10:15:36;;;;;;;15.35;11.70;;;;;;;18.49;42.47;98827.84;4301240;33;34543;-85
2023/04/19 10:18:07;;;;;;;16.27;12.15;;;;;;;18.06;42.79;98817.47;4301189;33;34781;-84
2023/04/19 10:20:45;;;;;;;19.10;13.85;;;;;;;18.80;43.79;98824.47;4287936;33;34794;-87
2023/04/19 10:23:13;;;;;;;22.70;14.13;;;;;;;18.11;44.97;98826.13;4295821;33;33531;-90
2023/04/19 10:25:45;;;;;;;20.48;14.13;;;;;;;17.96;44.82;98824.72;4302321;33;33750;-88
2023/04/19 10:28:14;;;;;;;21.00;13.98;;;;;;;17.92;45.39;98828.31;4309865;33;33815;-87
2023/04/19 10:31:00;;;;;;;22.20;15.77;;;;;;;17.88;45.20;98831.88;4302556;33;33784;-89
2023/04/19 10:33:35;;;;;;;26.92;16.17;;;;;;;17.95;45.22;98826.44;4290425;33;34512;-88
2023/04/19 10:36:06;;;;;;;21.27;14.35;;;;;;;17.82;45.59;98821.53;4315483;33;34209;-90
2023/04/19 10:38:54;;;;;;;20.52;14.23;;;;;;;18.23;44.02;98810.09;4302285;33;34111;-86
2023/04/19 10:41:22;;;;;;;20.27;13.90;;;;;;;18.30;44.57;98814.28;4306633;33;34250;-96
2023/04/19 10:43:55;;;;;;;21.42;13.05;;;;;;;18.70;43.05;98810.66;4305194;33;33857;-84
2023/04/19 10:46:27;;;;;;;16.33;12.57;;;;;;;18.36;44.21;98811.50;4309128;33;34094;-89
2023/04/19 10:48:59;;;;;;;20.27;12.32;;;;;;;18.37;44.18;98813.25;4305809;33;34133;-92
2023/04/19 10:51:31;;;;;;;19.48;12.30;;;;;;;18.15;45.42;98818.16;4303063;33;34082;-93
2023/04/19 10:54:00;;;;;;;16.80;11.45;;;;;;;18.55;43.66;98809.28;4296042;33;33243;-91
2023/04/19 10:56:31;;;;;;;17.60;11.75;;;;;;;18.74;44.78;98807.09;4306001;33;33535;-86
2023/04/19 10:58:59;;;;;;;20.60;13.35;;;;;;;18.74;43.80;98812.34;4307631;33;34372;-86
2023/04/19 11:01:38;;;;;;;19.08;11.63;;;;;;;18.71;43.50;98807.16;4308567;33;34345;-86
2023/04/19 11:04:17;;;;;;;15.23;10.32;;;;;;;18.93;43.32;98800.44;4308296;33;33402;-86
2023/04/19 11:06:53;;;;;;;14.13;10.52;;;;;;;19.19;39.52;98789.22;4308347;33;34174;-85
2023/04/19 11:09:22;;;;;;;13.75;10.65;;;;;;;18.81;42.76;98803.41;4308332;33;34611;-85
2023/04/19 11:11:51;;;;;;;13.35;9.70;;;;;;;19.39;41.16;98790.41;4308398;33;34264;-85
2023/04/19 11:14:20;;;;;;;14.50;9.45;;;;;;;19.29;40.28;98795.09;4310485;33;33678;-85
2023/04/19 11:16:47;;;;;;;15.30;10.57;;;;;;;18.98;40.52;98802.06;4311661;33;34279;-85
2023/04/19 12:04:45;;;;;;;19.35;12.98;;;;;;;17.69;47.02;98794.66;5030585;27;20025;-87
2023/04/19 12:07:13;;;;;;;20.12;14.10;;;;;;;17.54;46.85;98808.09;4336465;33;33629;-86
2023/04/19 12:09:40;;;;;;;18.77;13.80;;;;;;;17.21;47.92;98803.53;4349058;33;34955;-86
2023/04/19 12:12:07;;;;;;;20.90;14.02;;;;;;;17.47;47.56;98796.91;4336758;33;35293;-90
2023/04/19 12:14:35;;;;;;;21.92;14.43;;;;;;;17.47;47.22;98802.16;4348455;33;34513;-90
2023/04/19 12:17:12;;;;;;;18.98;14.00;;;;;;;17.07;48.01;98799.47;4349090;33;34869;-89
2023/04/19 12:19:45;;;;;;;20.52;14.23;;;;;;;17.33;47.27;98791.94;4349190;33;35142;-86
2023/04/19 12:22:15;;;;;;;21.45;14.05;;;;;;;17.67;47.63;98788.59;4336778;33;35194;-89
2023/04/19 12:24:43;;;;;;;18.90;14.27;;;;;;;17.48;46.99;98791.63;4337066;33;34436;-87
2023/04/19 12:27:10;;;;;;;18.70;12.73;;;;;;;17.84;46.69;98778.66;4336501;33;34602;-86
2023/04/19 12:29:38;;;;;;;16.95;13.57;;;;;;;18.20;45.65;98783.91;4337103;33;35433;-86
2023/04/19 12:32:06;;;;;;;18.42;13.68;;;;;;;18.32;45.57;98778.34;4348732;33;35356;-86
2023/04/19 12:34:33;;;;;;;17.58;11.82;;;;;;;18.44;45.14;98770.16;4348697;33;34856;-86
2023/04/19 12:37:02;;;;;;;17.30;12.07;;;;;;;18.18;46.21;98775.22;4350301;32;35023;-87
2023/04/19 12:39:30;;;;;;;17.65;11.77;;;;;;;18.44;46.11;98767.53;4379300;32;36230;-87
2023/04/19 12:41:57;;;;;;;19.40;12.15;;;;;;;18.95;44.77;98771.53;4366930;32;34959;-86
2023/04/19 12:44:25;;;;;;;17.10;11.98;;;;;;;18.72;44.16;98766.87;4379168;32;34879;-89
2023/04/19 12:46:56;;;;;;;15.45;10.55;;;;;;;18.30;44.55;98764.44;4379010;32;35139;-86
2023/04/19 12:49:23;;;;;;;17.65;12.13;;;;;;;18.86;43.87;98772.59;4383067;32;35381;-94
2023/04/19 12:51:51;;;;;;;15.77;10.57;;;;;;;19.05;42.74;98761.59;4394038;32;35378;-90
2023/04/19 12:54:21;;;;;;;16.77;12.07;;;;;;;19.10;43.67;98767.59;4394374;32;34862;-88
2023/04/19 12:56:48;;;;;;;15.38;11.63;;;;;;;19.48;42.13;98763.00;4393611;32;35509;-86
2023/04/19 12:59:16;;;;;;;16.10;10.40;;;;;;;19.36;42.52;98758.97;4381729;32;35425;-86
2023/04/19 13:01:44;;;;;;;17.27;10.63;;;;;;;19.33;41.78;98759.06;4394266;32;35403;-86
2023/04/19 13:04:11;;;;;;;16.60;10.18;;;;;;;19.00;41.56;98755.62;4394264;32;34788;-86
2023/04/19 13:06:39;;;;;;;12.73;9.07;;;;;;;19.07;42.56;98752.78;4381487;32;34370;-86
2023/04/19 13:09:07;;;;;;;12.57;8.65;;;;;;;19.23;42.51;98758.44;4394423;32;35324;-84
2023/04/19 13:11:41;;;;;;;14.77;9.52;;;;;;;19.29;40.69;98754.81;4393978;32;35259;-86